createdAt,value
2022-09-14T00:04:13.485Z,4.07
2022-09-14T00:09:21.109Z,4.68
2022-09-14T00:14:28.221Z,4.00
2022-09-14T00:19:32.552Z,3.75
2022-09-14T00:24:37.613Z,3.75
2022-09-14T00:29:43.477Z,3.78
2022-09-14T00:34:47.966Z,4.00
2022-09-14T00:39:52.893Z,4.03
2022-09-14T00:45:06.105Z,3.78
2022-09-14T00:50:12.500Z,4.05
2022-09-14T00:55:20.794Z,3.95
2022-09-14T01:00:29.549Z,4.25
2022-09-14T01:05:49.677Z,4.10
2022-09-14T01:11:18.537Z,4.15
2022-09-14T01:16:33.020Z,3.78
2022-09-14T01:21:40.099Z,4.25
2022-09-14T01:27:26.934Z,4.32
2022-09-14T01:32:37.611Z,4.47
2022-09-14T01:37:49.242Z,4.20
2022-09-14T01:42:56.933Z,4.03
2022-09-14T01:48:06.554Z,4.45
2022-09-14T01:53:15.430Z,4.40
2022-09-14T01:58:28.570Z,4.20
2022-09-14T02:03:46.009Z,4.50
2022-09-14T02:08:51.919Z,3.75
2022-09-14T02:13:56.551Z,4.07
2022-09-14T02:19:02.921Z,4.35
2022-09-14T02:24:08.470Z,4.63
2022-09-14T02:29:13.265Z,4.15
2022-09-14T02:34:35.595Z,4.57
2022-09-14T02:39:48.252Z,6.85
2022-09-14T02:45:02.734Z,5.55
2022-09-14T02:50:20.715Z,6.80
2022-09-14T02:55:29.812Z,9.73
2022-09-14T03:00:36.942Z,9.30
2022-09-14T03:05:43.469Z,6.75
2022-09-14T03:10:49.025Z,6.85
2022-09-14T03:15:54.207Z,5.68
2022-09-14T03:21:07.473Z,5.35
2022-09-14T03:26:13.988Z,5.95
2022-09-14T03:31:19.327Z,5.50
2022-09-14T03:36:26.972Z,5.40
2022-09-14T03:41:31.314Z,5.57
2022-09-14T03:46:36.500Z,5.68
2022-09-14T03:51:42.769Z,6.40
2022-09-14T03:56:48.097Z,5.10
2022-09-14T04:01:52.772Z,5.65
2022-09-14T04:06:58.889Z,5.70
2022-09-14T04:12:03.915Z,4.82
2022-09-14T04:17:09.235Z,5.75
2022-09-14T04:22:16.256Z,5.65
2022-09-14T04:27:20.446Z,5.70
2022-09-14T04:32:24.762Z,6.07
2022-09-14T04:37:33.436Z,6.05
2022-09-14T04:42:38.370Z,5.50
2022-09-14T04:47:42.621Z,6.75
2022-09-14T04:52:51.282Z,6.03
2022-09-14T04:57:56.240Z,5.70
2022-09-14T05:03:01.467Z,6.55
2022-09-14T05:08:07.479Z,6.70
2022-09-14T05:13:11.881Z,6.43
2022-09-14T05:18:16.307Z,6.40
2022-09-14T05:23:22.597Z,5.68
2022-09-14T05:28:27.887Z,5.75
2022-09-14T05:33:32.163Z,5.70
2022-09-14T05:38:40.576Z,5.60
2022-09-14T05:43:45.660Z,6.55
2022-09-14T05:48:52.178Z,6.00
2022-09-14T05:54:00.375Z,6.25
2022-09-14T05:59:05.184Z,6.55
2022-09-14T06:04:12.878Z,7.57
2022-09-14T06:09:19.128Z,9.25
2022-09-14T06:14:23.223Z,6.40
2022-09-14T06:19:28.114Z,6.55
2022-09-14T06:24:34.124Z,5.70
2022-09-14T06:29:38.742Z,6.20
2022-09-14T06:34:42.902Z,5.75
2022-09-14T06:39:49.317Z,5.45
2022-09-14T06:44:53.802Z,5.97
2022-09-14T06:49:59.352Z,6.03
2022-09-14T06:55:07.311Z,5.63
2022-09-14T07:00:12.921Z,5.70
2022-09-14T07:05:20.715Z,6.63
2022-09-14T07:10:28.814Z,6.43
2022-09-14T07:15:33.635Z,6.53
2022-09-14T07:20:37.862Z,6.50
2022-09-14T07:25:43.988Z,5.93
2022-09-14T07:30:48.947Z,6.53
2022-09-14T07:35:54.168Z,6.50
2022-09-14T07:41:01.930Z,6.82
2022-09-14T07:46:07.611Z,7.30
2022-09-14T07:51:13.260Z,7.95
2022-09-14T07:56:19.167Z,7.72
2022-09-14T08:01:23.757Z,8.40
2022-09-14T08:06:29.503Z,8.07
2022-09-14T08:11:36.071Z,8.02
2022-09-14T08:16:42.108Z,8.18
2022-09-14T08:21:48.280Z,7.60
2022-09-14T08:26:55.449Z,8.68
2022-09-14T08:32:00.004Z,8.75
2022-09-14T08:37:04.579Z,8.98
2022-09-14T08:42:17.981Z,8.25
2022-09-14T08:47:28.638Z,9.88
2022-09-14T08:52:36.851Z,8.50
2022-09-14T08:57:47.075Z,8.65
2022-09-14T09:03:26.574Z,8.07
2022-09-14T09:08:39.849Z,7.85
2022-09-14T09:13:48.837Z,6.60
2022-09-14T09:18:59.187Z,6.43
2022-09-14T09:24:17.681Z,6.93
2022-09-14T09:29:23.689Z,6.80
2022-09-14T09:34:46.608Z,7.55
2022-09-14T09:40:33.909Z,6.40
2022-09-14T09:45:59.994Z,7.10
2022-09-14T09:51:12.693Z,6.50
2022-09-14T09:56:24.987Z,5.65
2022-09-14T10:01:33.465Z,5.82
2022-09-14T10:06:46.175Z,5.53
2022-09-14T10:11:59.804Z,5.40
2022-09-14T10:17:19.916Z,5.05
2022-09-14T10:22:29.871Z,6.30
2022-09-14T10:27:39.918Z,5.35
2022-09-14T10:32:52.865Z,5.18
2022-09-14T10:38:17.291Z,5.90
2022-09-14T10:43:36.895Z,6.47
2022-09-14T10:48:59.876Z,7.03
2022-09-14T10:54:18.756Z,5.75
2022-09-14T10:59:34.290Z,5.47
2022-09-14T11:04:57.406Z,4.40
2022-09-14T11:10:09.439Z,4.90
2022-09-14T11:15:26.107Z,4.85
2022-09-14T11:20:42.560Z,5.20
2022-09-14T11:25:54.293Z,5.10
2022-09-14T11:31:05.007Z,5.28
2022-09-14T11:36:20.197Z,6.85
2022-09-14T11:41:30.830Z,7.40
2022-09-14T11:46:38.323Z,6.68
2022-09-14T11:51:48.864Z,7.00
2022-09-14T11:56:58.844Z,7.65
2022-09-14T12:02:41.627Z,7.40
2022-09-14T12:08:04.616Z,8.25
2022-09-14T12:13:21.998Z,8.45
2022-09-14T12:18:29.481Z,8.98
2022-09-14T12:23:44.810Z,9.77
2022-09-14T12:28:51.679Z,8.27
2022-09-14T12:34:30.676Z,9.48
2022-09-14T12:39:38.443Z,9.77
2022-09-14T12:44:44.449Z,11.32
2022-09-14T12:49:50.106Z,10.10
2022-09-14T12:55:12.779Z,10.15
2022-09-14T13:00:20.359Z,9.52
2022-09-14T13:05:27.641Z,8.45
2022-09-14T13:10:36.704Z,9.57
2022-09-14T13:15:51.915Z,10.27
2022-09-14T13:20:58.073Z,9.82
2022-09-14T13:26:11.619Z,9.50
2022-09-14T13:31:21.683Z,9.98
2022-09-14T13:36:42.106Z,13.88
2022-09-14T13:41:47.944Z,9.57
2022-09-14T13:46:53.487Z,8.27
2022-09-14T13:52:20.392Z,8.48
2022-09-14T13:57:27.027Z,7.82
2022-09-14T14:02:34.348Z,7.32
2022-09-14T14:07:39.296Z,6.60
2022-09-14T14:12:50.109Z,6.32
2022-09-14T14:17:55.915Z,6.75
2022-09-14T14:23:04.366Z,6.75
2022-09-14T14:28:18.069Z,7.07
2022-09-14T14:33:23.578Z,7.53
2022-09-14T14:38:28.561Z,7.93
2022-09-14T14:43:34.934Z,8.55
2022-09-14T14:48:39.291Z,7.65
2022-09-14T14:53:44.014Z,9.05
2022-09-14T14:58:50.584Z,8.43
2022-09-14T15:03:55.010Z,11.02
2022-09-14T15:08:59.388Z,11.55
2022-09-14T15:14:05.760Z,10.43
2022-09-14T15:19:11.283Z,10.73
2022-09-14T15:24:15.476Z,14.93
2022-09-14T15:29:21.359Z,11.27
2022-09-14T15:34:26.457Z,11.45
2022-09-14T15:39:33.484Z,11.57
2022-09-14T15:44:39.753Z,11.50
2022-09-14T15:49:44.804Z,11.63
2022-09-14T15:54:49.626Z,13.68
2022-09-14T15:59:56.736Z,13.75
2022-09-14T16:05:00.872Z,12.63
2022-09-14T16:10:05.464Z,13.85
2022-09-14T16:15:12.683Z,14.05
2022-09-14T16:20:17.647Z,14.20
2022-09-14T16:25:21.996Z,14.65
2022-09-14T16:30:28.164Z,14.20
2022-09-14T16:35:32.497Z,14.18
2022-09-14T16:40:41.029Z,13.95
2022-09-14T16:45:50.590Z,12.38
2022-09-14T16:50:54.806Z,12.68
2022-09-14T16:56:04.830Z,11.73
2022-09-14T17:06:19.939Z,12.18
2022-09-14T17:11:24.396Z,11.43
2022-09-14T17:16:31.033Z,9.18
2022-09-14T17:21:39.402Z,9.38
2022-09-14T17:26:44.583Z,11.43
2022-09-14T17:31:51.138Z,11.90
2022-09-14T17:36:55.516Z,12.18
2022-09-14T17:41:59.920Z,12.95
2022-09-14T17:47:06.566Z,12.27
2022-09-14T17:52:11.038Z,13.95
2022-09-14T17:57:15.831Z,13.43
2022-09-14T18:02:22.165Z,14.30
2022-09-14T18:07:27.348Z,16.20
2022-09-14T18:12:36.647Z,15.90
2022-09-14T18:17:43.942Z,16.75
2022-09-14T18:22:48.598Z,12.73
2022-09-14T18:27:52.683Z,11.63
2022-09-14T18:32:58.684Z,11.70
2022-09-14T18:38:03.098Z,10.68
2022-09-14T18:43:07.628Z,10.27
2022-09-14T18:48:13.787Z,10.15
2022-09-14T18:53:17.921Z,11.88
2022-09-14T18:58:22.164Z,12.80
2022-09-14T19:03:29.615Z,15.02
2022-09-14T19:08:33.618Z,17.33
2022-09-14T19:13:38.324Z,16.10
2022-09-14T19:18:45.946Z,14.98
2022-09-14T19:23:51.579Z,16.55
2022-09-14T19:28:56.815Z,19.70
2022-09-14T19:34:03.854Z,18.77
2022-09-14T19:39:08.535Z,19.02
2022-09-14T19:44:13.395Z,18.23
2022-09-14T19:49:22.565Z,18.30
2022-09-14T19:54:27.074Z,17.27
2022-09-14T19:59:31.696Z,16.95
2022-09-14T20:04:37.563Z,16.90
2022-09-14T20:09:41.783Z,18.33
2022-09-14T20:14:46.695Z,18.20
2022-09-14T20:19:52.869Z,17.45
2022-09-14T20:24:57.477Z,17.73
2022-09-14T20:30:01.981Z,19.48
2022-09-14T20:35:10.007Z,18.92
2022-09-14T20:40:14.920Z,18.77
2022-09-14T20:45:19.525Z,19.73
2022-09-14T20:50:25.684Z,17.98
2022-09-14T20:55:30.555Z,18.15
2022-09-14T21:00:34.921Z,18.65
2022-09-14T21:05:41.906Z,18.52
2022-09-14T21:10:46.907Z,15.60
2022-09-14T21:15:51.733Z,15.32
2022-09-14T21:21:01.112Z,16.38
2022-09-14T21:26:09.163Z,16.13
2022-09-14T21:31:15.422Z,15.80
2022-09-14T21:36:23.872Z,17.05
2022-09-14T21:41:30.466Z,17.23
2022-09-14T21:46:35.530Z,15.93
2022-09-14T21:51:41.917Z,16.80
2022-09-14T21:56:47.864Z,17.85
2022-09-14T22:01:52.962Z,18.40
2022-09-14T22:06:59.767Z,16.02
2022-09-14T22:12:05.057Z,16.75
2022-09-14T22:17:09.838Z,16.10
2022-09-14T22:22:15.928Z,16.52
2022-09-14T22:27:20.372Z,15.13
2022-09-14T22:32:24.919Z,16.02
2022-09-14T22:37:30.480Z,16.40
2022-09-14T22:42:35.315Z,16.83
2022-09-14T22:47:39.561Z,15.45
2022-09-14T22:52:45.001Z,17.17
2022-09-14T22:57:49.998Z,17.00
2022-09-14T23:02:54.826Z,16.25
2022-09-14T23:08:01.514Z,18.17
2022-09-14T23:13:06.238Z,17.85
2022-09-14T23:18:11.248Z,18.20
2022-09-14T23:23:17.624Z,22.10
2022-09-14T23:28:21.832Z,21.45
2022-09-14T23:33:26.784Z,20.63
2022-09-14T23:38:35.649Z,21.10
2022-09-14T23:43:40.099Z,22.23
2022-09-14T23:48:45.201Z,20.85
2022-09-14T23:53:51.324Z,22.52
2022-09-14T23:58:55.628Z,22.90
